Time;durP1;ratioP1;P1;durP2;ratioP2;P2;SDS_P1;SDS_P2;PMS_P1;PMS_P2;Temp;Humidity;BMP_temperature;BMP_pressure;BME280_temperature;BME280_humidity;BME280_pressure;Samples;Min_cycle;Max_cycle;Signal;HPM_P1;HPM_P2
2022/01/02 00:02:00;;;;;;;6.10;4.27;;;11.90;99.90;;;;;;5079037;28;20269;-62
2022/01/02 00:04:34;;;;;;;9.50;4.83;;;11.80;99.90;;;;;;5084923;28;20196;-62
2022/01/02 00:07:06;;;;;;;7.60;4.90;;;11.70;99.90;;;;;;5086091;28;20195;-62
2022/01/02 00:09:37;;;;;;;8.90;4.30;;;11.70;99.90;;;;;;5086803;28;20188;-62
2022/01/02 00:12:08;;;;;;;9.97;4.20;;;11.70;99.90;;;;;;5065940;28;20236;-62
2022/01/02 00:14:38;;;;;;;7.47;4.27;;;11.70;99.90;;;;;;5086705;28;20855;-62
2022/01/02 00:17:09;;;;;;;9.10;4.60;;;11.80;99.90;;;;;;5084156;28;20197;-62
2022/01/02 00:19:41;;;;;;;7.20;4.53;;;11.70;99.90;;;;;;5060612;28;20199;-62
2022/01/02 00:22:15;;;;;;;12.73;4.30;;;11.70;99.90;;;;;;5079085;28;20236;-62
2022/01/02 00:24:44;;;;;;;8.33;4.50;;;11.70;99.90;;;;;;5050842;28;20198;-62
2022/01/02 00:27:15;;;;;;;7.77;4.20;;;11.70;99.90;;;;;;5078138;28;20199;-62
2022/01/02 00:29:44;;;;;;;7.10;4.30;;;11.60;99.90;;;;;;5073200;28;20278;-62
2022/01/02 00:32:14;;;;;;;6.87;4.23;;;11.60;99.90;;;;;;5072501;28;20275;-62
2022/01/02 00:34:47;;;;;;;5.80;4.67;;;11.60;99.90;;;;;;5066522;28;20612;-62
2022/01/02 00:37:15;;;;;;;8.13;4.33;;;11.60;99.90;;;;;;5066335;28;20276;-63
2022/01/02 00:39:44;;;;;;;7.13;4.40;;;11.60;99.90;;;;;;5082747;28;20199;-62
2022/01/02 00:42:20;;;;;;;7.20;4.10;;;11.60;99.90;;;;;;5061414;28;20601;-62
2022/01/02 00:44:58;;;;;;;8.60;4.43;;;11.70;99.90;;;;;;5087671;28;20191;-63
2022/01/02 00:47:33;;;;;;;7.50;4.07;;;11.70;99.90;;;;;;5076312;28;20286;-62
2022/01/02 00:50:07;;;;;;;9.77;4.20;;;11.80;99.90;;;;;;5085415;28;20256;-62
2022/01/02 00:52:38;;;;;;;5.43;3.93;;;11.80;99.90;;;;;;5082686;28;20187;-63
2022/01/02 00:55:09;;;;;;;13.23;4.17;;;11.80;99.90;;;;;;5068200;28;20203;-62
2022/01/02 00:57:40;;;;;;;7.07;4.27;;;11.80;99.90;;;;;;5066872;28;20184;-62
2022/01/02 01:00:11;;;;;;;5.50;4.33;;;11.90;99.90;;;;;;5078210;28;20269;-62
2022/01/02 01:02:45;;;;;;;10.90;4.53;;;11.90;99.90;;;;;;5074337;28;20200;-62
2022/01/02 01:05:55;;;;;;;7.83;4.53;;;11.90;99.90;;;;;;5077615;28;20222;-62
2022/01/02 01:08:24;;;;;;;11.27;4.80;;;11.90;99.90;;;;;;5061625;28;20184;-62
2022/01/02 01:10:53;;;;;;;10.77;4.93;;;11.90;99.90;;;;;;5073817;28;20604;-62
2022/01/02 01:13:21;;;;;;;7.93;4.57;;;11.90;99.90;;;;;;5075744;28;20278;-62
2022/01/02 01:15:51;;;;;;;8.60;4.23;;;11.90;99.90;;;;;;5083266;28;20227;-62
2022/01/02 01:18:19;;;;;;;8.47;4.13;;;11.90;99.90;;;;;;5081365;28;20192;-62
2022/01/02 01:20:47;;;;;;;8.20;3.97;;;11.90;99.90;;;;;;5079824;28;20260;-63
2022/01/02 01:23:17;;;;;;;9.57;4.40;;;11.80;99.90;;;;;;5077238;28;20254;-62
2022/01/02 01:25:46;;;;;;;8.43;3.97;;;11.90;99.90;;;;;;5070055;28;20649;-63
2022/01/02 01:28:17;;;;;;;12.97;4.83;;;11.80;99.90;;;;;;5064957;28;20655;-62
2022/01/02 01:30:48;;;;;;;8.60;4.40;;;11.80;99.90;;;;;;5081263;28;20638;-61
2022/01/02 01:33:16;;;;;;;9.50;4.23;;;11.80;99.90;;;;;;5079068;28;20275;-62
2022/01/02 01:35:45;;;;;;;5.90;4.33;;;11.80;99.90;;;;;;5081644;28;20212;-62
2022/01/02 01:38:13;;;;;;;12.50;4.13;;;11.80;99.90;;;;;;5086518;28;20257;-61
2022/01/02 01:40:49;;;;;;;14.30;4.80;;;11.80;99.90;;;;;;5060615;28;20203;-62
2022/01/02 01:43:17;;;;;;;5.47;4.37;;;11.80;99.90;;;;;;5083770;28;20183;-62
2022/01/02 01:45:45;;;;;;;6.40;4.47;;;11.80;99.90;;;;;;5076369;28;20192;-62
2022/01/02 01:48:14;;;;;;;8.70;4.50;;;11.80;99.90;;;;;;5090754;28;20270;-62
2022/01/02 01:50:44;;;;;;;10.67;4.27;;;11.80;99.90;;;;;;5054231;28;20204;-62
2022/01/02 01:53:12;;;;;;;13.33;5.20;;;11.70;99.90;;;;;;5062353;28;20212;-62
2022/01/02 01:55:40;;;;;;;7.47;5.10;;;11.70;99.90;;;;;;5075476;28;20282;-62
2022/01/02 01:58:11;;;;;;;9.30;4.43;;;11.80;99.90;;;;;;5064672;28;20227;-62
2022/01/02 02:00:40;;;;;;;9.97;4.90;;;11.80;99.90;;;;;;5055385;28;20257;-62
2022/01/02 02:03:08;;;;;;;7.03;4.30;;;11.80;99.90;;;;;;5075305;28;20200;-62
2022/01/02 02:05:37;;;;;;;7.20;4.80;;;11.80;99.90;;;;;;5071411;28;20193;-62
2022/01/02 02:08:07;;;;;;;10.57;4.67;;;11.70;99.90;;;;;;5083670;28;20208;-62
2022/01/02 02:10:38;;;;;;;7.73;4.90;;;11.70;99.90;;;;;;5056299;28;20237;-62
2022/01/02 02:13:07;;;;;;;7.57;4.30;;;11.70;99.90;;;;;;5079401;28;20975;-62
2022/01/02 02:15:37;;;;;;;7.60;4.87;;;11.70;99.90;;;;;;5076766;28;20227;-62
2022/01/02 02:18:06;;;;;;;5.23;4.63;;;11.70;99.90;;;;;;5081717;28;20206;-62
2022/01/02 02:20:37;;;;;;;5.67;4.43;;;11.70;99.90;;;;;;5064388;28;20219;-62
2022/01/02 02:23:06;;;;;;;7.27;4.87;;;11.60;99.90;;;;;;5045369;28;20739;-62
2022/01/02 02:25:36;;;;;;;11.57;4.57;;;11.60;99.90;;;;;;5061270;28;20209;-62
2022/01/02 02:28:08;;;;;;;7.17;4.57;;;11.60;99.90;;;;;;5082344;28;20179;-62
2022/01/02 02:30:38;;;;;;;11.30;4.40;;;11.60;99.90;;;;;;5078534;28;20251;-62
2022/01/02 02:33:08;;;;;;;9.40;4.77;;;11.70;99.90;;;;;;5083336;28;20192;-62
2022/01/02 02:35:40;;;;;;;6.70;4.00;;;11.70;99.90;;;;;;5083875;28;20223;-62
2022/01/02 02:38:10;;;;;;;7.27;4.07;;;11.70;99.90;;;;;;5062270;28;20238;-62
2022/01/02 02:40:39;;;;;;;6.30;4.07;;;11.70;99.90;;;;;;5065841;28;20226;-62
2022/01/02 02:43:21;;;;;;;10.07;4.27;;;11.70;99.90;;;;;;5086856;28;20191;-62
2022/01/02 02:51:32;;;;;;;13.33;4.93;;;11.70;99.90;;;;;;5083270;28;20214;-62
2022/01/02 02:54:00;;;;;;;6.93;4.53;;;11.70;99.90;;;;;;5079750;28;20215;-62
2022/01/02 02:56:41;;;;;;;14.60;5.40;;;11.70;99.90;;;;;;5058117;28;20280;-62
2022/01/02 02:59:10;;;;;;;8.73;4.80;;;11.60;99.90;;;;;;5087428;28;20274;-62
2022/01/02 03:01:39;;;;;;;8.30;4.47;;;11.60;99.90;;;;;;5082458;28;20268;-63
2022/01/02 03:04:08;;;;;;;4.77;4.23;;;11.60;99.90;;;;;;5082367;28;20222;-62
2022/01/02 03:06:38;;;;;;;8.30;4.70;;;11.60;99.90;;;;;;5057799;28;20282;-62
2022/01/02 03:09:09;;;;;;;8.20;4.47;;;11.60;99.90;;;;;;5076935;28;20200;-62
2022/01/02 03:11:39;;;;;;;7.27;4.80;;;11.60;99.90;;;;;;5079164;28;20204;-62
2022/01/02 03:14:09;;;;;;;8.93;4.17;;;11.60;99.90;;;;;;5066200;28;20200;-62
2022/01/02 03:16:38;;;;;;;7.97;4.70;;;11.60;99.90;;;;;;5081507;28;20230;-62
2022/01/02 03:19:07;;;;;;;8.23;4.53;;;11.60;99.90;;;;;;5084250;28;20604;-62
2022/01/02 03:21:37;;;;;;;11.67;4.67;;;11.60;99.90;;;;;;5081376;28;20650;-62
2022/01/02 03:24:05;;;;;;;7.07;4.20;;;11.60;99.90;;;;;;5049472;28;20246;-62
2022/01/02 03:26:33;;;;;;;6.03;4.17;;;11.60;99.90;;;;;;5079251;28;20646;-62
2022/01/02 03:29:02;;;;;;;4.33;3.87;;;11.60;99.90;;;;;;5059227;28;20196;-62
2022/01/02 03:31:30;;;;;;;9.53;4.73;;;11.60;99.90;;;;;;5080810;28;20246;-62
2022/01/02 03:33:58;;;;;;;9.17;4.53;;;11.70;99.90;;;;;;5080176;28;20554;-62
2022/01/02 03:36:27;;;;;;;11.63;4.43;;;11.70;99.90;;;;;;5081749;28;20303;-62
2022/01/02 03:38:57;;;;;;;4.93;4.00;;;11.70;99.90;;;;;;5086522;28;20635;-61
2022/01/02 03:41:25;;;;;;;7.20;4.13;;;11.70;99.90;;;;;;5061914;28;20278;-62
2022/01/02 03:43:53;;;;;;;8.07;3.83;;;11.70;99.90;;;;;;5063461;28;20196;-62
2022/01/02 03:46:21;;;;;;;6.00;3.80;;;11.70;99.90;;;;;;5061239;28;20195;-62
2022/01/02 03:48:50;;;;;;;5.30;3.63;;;11.70;99.90;;;;;;5083921;28;20200;-62
2022/01/02 03:51:18;;;;;;;9.17;3.90;;;11.70;99.90;;;;;;5073143;28;20226;-62
2022/01/02 03:53:47;;;;;;;5.73;3.90;;;11.70;99.90;;;;;;5081824;28;20596;-62
2022/01/02 03:56:17;;;;;;;6.27;3.97;;;11.60;99.90;;;;;;5073825;28;20808;-62
2022/01/02 03:58:45;;;;;;;9.67;3.80;;;11.50;99.90;;;;;;5076982;28;20246;-62
2022/01/02 04:01:13;;;;;;;8.47;4.47;;;11.50;99.90;;;;;;5079078;28;20233;-62
2022/01/02 04:03:42;;;;;;;6.10;4.00;;;11.40;99.90;;;;;;5077393;28;20542;-62
2022/01/02 04:06:10;;;;;;;6.47;4.07;;;11.40;99.90;;;;;;5060447;28;20218;-62
2022/01/02 04:08:39;;;;;;;12.07;4.17;;;11.40;99.90;;;;;;5083093;28;20264;-62
2022/01/02 04:11:07;;;;;;;6.67;4.23;;;11.40;99.90;;;;;;5081797;28;20230;-62
2022/01/02 04:13:37;;;;;;;4.33;3.87;;;11.40;99.90;;;;;;5077017;28;20195;-62
2022/01/02 04:16:05;;;;;;;5.40;4.10;;;11.40;99.90;;;;;;5076116;28;20238;-62
2022/01/02 04:18:34;;;;;;;6.57;4.00;;;11.40;99.90;;;;;;5083012;28;20196;-62
2022/01/02 04:21:02;;;;;;;6.67;4.00;;;11.40;99.90;;;;;;5069169;28;20215;-62
2022/01/02 04:23:30;;;;;;;5.90;4.40;;;11.40;99.90;;;;;;5080091;28;20196;-62
2022/01/02 04:25:58;;;;;;;6.27;4.07;;;11.40;99.90;;;;;;5086816;28;20211;-62
2022/01/02 04:28:27;;;;;;;5.30;4.27;;;11.40;99.90;;;;;;5078056;28;20199;-62
2022/01/02 04:30:57;;;;;;;8.30;3.97;;;11.40;99.90;;;;;;5082636;28;20846;-62
2022/01/02 04:33:25;;;;;;;5.00;4.20;;;11.30;99.90;;;;;;5072016;28;20200;-62
2022/01/02 04:35:53;;;;;;;12.73;3.97;;;11.40;99.90;;;;;;5083739;28;20256;-62
2022/01/02 04:38:22;;;;;;;6.10;4.00;;;11.40;99.90;;;;;;5085405;28;20204;-62
2022/01/02 04:40:50;;;;;;;6.60;3.90;;;11.40;99.90;;;;;;5081691;28;20200;-62
2022/01/02 04:43:18;;;;;;;7.90;4.30;;;11.40;99.90;;;;;;5082621;28;20215;-62
2022/01/02 04:45:47;;;;;;;5.63;3.97;;;11.40;99.90;;;;;;5084793;28;20196;-62
2022/01/02 04:48:17;;;;;;;4.70;4.20;;;11.40;99.90;;;;;;5083011;28;20873;-62
2022/01/02 04:50:45;;;;;;;6.50;4.10;;;11.30;99.90;;;;;;5081477;28;20245;-62
2022/01/02 04:53:13;;;;;;;5.20;3.90;;;11.30;99.90;;;;;;5081540;28;20187;-62
2022/01/02 04:55:42;;;;;;;8.47;3.80;;;11.30;99.90;;;;;;5079293;28;20645;-62
2022/01/02 04:58:10;;;;;;;7.07;3.93;;;11.30;99.90;;;;;;5084016;28;20199;-62
2022/01/02 05:00:39;;;;;;;7.17;4.20;;;11.20;99.90;;;;;;5083406;28;20287;-62
2022/01/02 05:03:07;;;;;;;7.80;4.40;;;11.20;99.90;;;;;;5058965;28;20726;-63
2022/01/02 05:05:37;;;;;;;8.03;4.20;;;11.20;99.90;;;;;;5057329;28;20215;-62
2022/01/02 05:08:06;;;;;;;7.30;3.80;;;11.20;99.90;;;;;;5079506;28;20195;-62
2022/01/02 05:10:34;;;;;;;9.30;4.13;;;11.20;99.90;;;;;;5084042;28;20200;-62
2022/01/02 05:13:03;;;;;;;9.03;4.33;;;11.10;99.90;;;;;;5063843;28;20612;-62
2022/01/02 05:15:31;;;;;;;7.93;4.37;;;11.10;99.90;;;;;;5079484;28;20227;-62
2022/01/02 05:17:59;;;;;;;8.03;4.70;;;11.10;99.90;;;;;;5062420;28;20218;-62
2022/01/02 05:20:28;;;;;;;9.43;4.30;;;11.10;99.90;;;;;;5082739;28;20831;-62
2022/01/02 05:22:58;;;;;;;5.73;4.27;;;11.10;99.90;;;;;;5080468;28;20200;-62
2022/01/02 05:25:26;;;;;;;7.23;3.90;;;11.10;99.90;;;;;;5083983;28;20661;-62
2022/01/02 05:27:55;;;;;;;6.87;3.83;;;11.10;99.90;;;;;;5083870;28;20179;-62
2022/01/02 05:30:23;;;;;;;7.50;4.00;;;11.10;99.90;;;;;;5078687;28;20207;-62
2022/01/02 05:32:51;;;;;;;7.47;4.13;;;11.10;99.90;;;;;;5080529;28;20258;-62
2022/01/02 05:35:20;;;;;;;6.90;4.40;;;11.10;99.90;;;;;;5083361;28;20208;-62
2022/01/02 05:37:48;;;;;;;4.80;4.10;;;11.00;99.90;;;;;;5058180;28;20219;-62
2022/01/02 05:40:18;;;;;;;4.63;3.80;;;11.00;99.90;;;;;;5082796;28;20231;-62
2022/01/02 05:42:46;;;;;;;5.60;4.00;;;11.00;99.90;;;;;;5056600;28;20191;-62
2022/01/02 05:45:15;;;;;;;8.60;3.80;;;11.10;99.90;;;;;;5083124;28;20914;-63
2022/01/02 05:47:43;;;;;;;6.60;4.57;;;11.10;99.90;;;;;;5068090;28;20284;-61
2022/01/02 05:50:12;;;;;;;7.67;4.20;;;11.10;99.90;;;;;;5057339;28;20188;-61
2022/01/02 05:52:40;;;;;;;4.10;3.70;;;11.00;99.90;;;;;;5081365;28;20234;-62
2022/01/02 05:55:10;;;;;;;5.20;4.00;;;11.00;99.90;;;;;;5085894;28;20203;-62
2022/01/02 05:57:40;;;;;;;6.70;3.73;;;10.90;99.90;;;;;;5086959;28;20237;-62
2022/01/02 06:00:10;;;;;;;4.10;3.80;;;10.90;99.90;;;;;;5083337;28;20613;-62
2022/01/02 06:02:38;;;;;;;7.13;4.10;;;10.90;99.90;;;;;;5085325;28;20226;-62
2022/01/02 06:05:08;;;;;;;5.50;3.90;;;10.90;99.90;;;;;;5087066;28;20282;-62
2022/01/02 06:07:36;;;;;;;6.80;4.20;;;10.90;99.90;;;;;;5073244;28;20745;-62
2022/01/02 06:10:06;;;;;;;6.87;4.10;;;10.90;99.90;;;;;;5082890;28;20279;-62
2022/01/02 06:12:34;;;;;;;5.60;3.77;;;10.90;99.90;;;;;;5087063;28;20191;-62
2022/01/02 06:15:06;;;;;;;7.87;3.80;;;11.00;99.90;;;;;;5086466;28;20227;-62
2022/01/02 06:17:35;;;;;;;4.23;3.77;;;11.00;99.90;;;;;;5082783;28;20253;-62
2022/01/02 06:20:04;;;;;;;6.00;3.90;;;11.10;99.90;;;;;;5086512;28;20203;-62
2022/01/02 06:22:33;;;;;;;4.00;3.60;;;11.10;99.90;;;;;;5081229;28;20215;-62
2022/01/02 06:25:02;;;;;;;6.97;3.60;;;11.10;99.90;;;;;;5066168;28;20277;-63
2022/01/02 06:27:31;;;;;;;5.70;3.97;;;11.10;99.90;;;;;;5081651;28;20211;-63
2022/01/02 06:29:59;;;;;;;3.70;3.40;;;11.20;99.90;;;;;;5063281;28;20224;-62
2022/01/02 06:32:30;;;;;;;7.40;3.40;;;11.10;99.90;;;;;;5049426;28;20203;-62
2022/01/02 06:34:58;;;;;;;4.10;3.50;;;11.20;99.90;;;;;;5087453;28;20203;-62
2022/01/02 06:37:27;;;;;;;5.83;4.10;;;11.20;99.90;;;;;;5063081;28;20203;-62
2022/01/02 06:39:55;;;;;;;4.03;3.57;;;11.30;99.90;;;;;;5062768;28;20191;-61
2022/01/02 06:42:24;;;;;;;4.20;3.40;;;11.40;99.90;;;;;;5090398;28;20227;-61
2022/01/02 06:44:52;;;;;;;8.20;3.53;;;11.50;99.90;;;;;;5066952;28;20282;-62
2022/01/02 06:47:21;;;;;;;3.63;3.40;;;11.50;99.90;;;;;;5087150;28;20194;-62
2022/01/02 06:49:51;;;;;;;4.90;3.07;;;11.50;99.90;;;;;;5074927;28;20200;-62
2022/01/02 06:52:20;;;;;;;7.00;3.40;;;11.60;99.90;;;;;;5068795;28;20187;-62
2022/01/02 06:54:52;;;;;;;5.60;3.50;;;11.60;99.90;;;;;;5068655;28;20727;-62
2022/01/02 06:57:21;;;;;;;5.20;3.83;;;11.60;99.90;;;;;;5087890;28;20204;-61
2022/01/02 06:59:50;;;;;;;3.67;3.20;;;11.60;99.90;;;;;;5085985;28;20719;-62
2022/01/02 07:02:19;;;;;;;8.07;3.93;;;11.50;99.90;;;;;;5082363;28;20205;-63
2022/01/02 07:04:48;;;;;;;4.20;3.80;;;11.50;99.90;;;;;;5060403;28;20188;-62
2022/01/02 07:07:18;;;;;;;5.37;3.63;;;11.50;99.90;;;;;;5085611;28;20278;-62
2022/01/02 07:09:46;;;;;;;4.13;3.73;;;11.50;99.90;;;;;;5063375;28;20250;-62
2022/01/02 07:12:15;;;;;;;4.30;3.97;;;11.60;99.90;;;;;;5087950;28;20222;-62
2022/01/02 07:14:44;;;;;;;4.00;3.43;;;11.60;99.90;;;;;;5047984;28;20236;-62
2022/01/02 07:17:13;;;;;;;5.43;3.50;;;11.60;99.90;;;;;;5060357;28;20246;-61
2022/01/02 07:19:41;;;;;;;3.77;3.47;;;11.60;99.90;;;;;;5065788;28;20222;-61
2022/01/02 07:22:10;;;;;;;3.80;3.50;;;11.60;99.90;;;;;;5065771;28;20201;-62
2022/01/02 07:24:41;;;;;;;3.60;3.30;;;11.60;99.90;;;;;;5060211;28;20276;-62
2022/01/02 07:27:10;;;;;;;5.87;4.00;;;11.60;99.90;;;;;;5028264;28;20732;-62
2022/01/02 07:29:39;;;;;;;4.40;3.60;;;11.60;99.90;;;;;;5045356;28;20686;-62
2022/01/02 07:32:07;;;;;;;4.40;3.83;;;11.60;99.90;;;;;;5040720;28;20184;-62
2022/01/02 07:34:35;;;;;;;4.47;3.93;;;11.70;99.90;;;;;;5046321;28;20191;-62
2022/01/02 07:37:04;;;;;;;4.37;3.67;;;11.70;99.90;;;;;;5064833;28;20224;-62
2022/01/02 07:39:33;;;;;;;4.23;3.87;;;11.80;99.90;;;;;;5055927;28;20648;-62
2022/01/02 07:42:03;;;;;;;4.70;4.00;;;11.80;99.90;;;;;;5063291;28;20211;-63
2022/01/02 07:44:36;;;;;;;6.10;4.20;;;11.90;99.90;;;;;;5060600;28;20211;-62
2022/01/02 07:47:06;;;;;;;6.17;4.27;;;11.90;99.90;;;;;;5068757;28;20211;-62
2022/01/02 07:49:34;;;;;;;5.87;4.00;;;11.90;99.90;;;;;;5064930;28;20230;-62
2022/01/02 07:52:03;;;;;;;4.17;3.77;;;11.90;99.90;;;;;;5057528;28;20227;-62
2022/01/02 07:54:32;;;;;;;4.67;4.27;;;11.90;99.90;;;;;;5065379;28;20288;-62
2022/01/02 07:57:00;;;;;;;5.30;4.30;;;12.00;99.90;;;;;;5060521;28;20537;-62
2022/01/02 07:59:30;;;;;;;6.73;4.07;;;12.00;99.90;;;;;;5063106;28;20219;-61
2022/01/02 08:02:09;;;;;;;5.97;4.37;;;12.00;99.90;;;;;;5055252;28;20261;-62
2022/01/02 08:04:38;;;;;;;7.40;4.60;;;11.90;99.90;;;;;;5063296;28;20192;-62
2022/01/02 08:07:06;;;;;;;5.90;4.23;;;11.90;99.90;;;;;;5065040;28;20213;-62
2022/01/02 08:09:35;;;;;;;9.60;4.37;;;11.90;99.90;;;;;;5045599;28;20192;-62
2022/01/02 08:12:03;;;;;;;5.03;4.53;;;11.80;99.90;;;;;;5041695;28;20364;-62
2022/01/02 08:14:33;;;;;;;6.73;4.60;;;11.80;99.90;;;;;;5042918;28;20314;-62
2022/01/02 08:17:02;;;;;;;5.63;4.50;;;11.70;99.90;;;;;;5073702;28;20271;-62
2022/01/02 08:19:31;;;;;;;5.00;4.33;;;11.70;99.90;;;;;;5086691;28;20683;-62
2022/01/02 08:22:00;;;;;;;6.33;4.40;;;11.70;99.90;;;;;;5070738;28;20179;-62
2022/01/02 08:24:29;;;;;;;6.70;4.93;;;11.70;99.90;;;;;;5069880;28;20669;-62
2022/01/02 08:27:00;;;;;;;6.77;4.37;;;11.70;99.90;;;;;;5084253;28;20202;-62
2022/01/02 08:29:28;;;;;;;7.63;4.97;;;11.70;99.90;;;;;;5083942;28;20674;-62
2022/01/02 08:31:59;;;;;;;6.93;4.80;;;11.70;99.90;;;;;;5064815;28;20874;-62
2022/01/02 08:34:27;;;;;;;7.63;4.70;;;11.70;99.90;;;;;;5065641;28;20662;-62
2022/01/02 08:36:56;;;;;;;5.40;4.60;;;11.70;99.90;;;;;;5082565;28;20658;-62
2022/01/02 08:39:24;;;;;;;5.63;4.93;;;11.70;99.90;;;;;;5081815;28;20203;-62
2022/01/02 08:41:53;;;;;;;5.40;4.77;;;11.70;99.90;;;;;;5057238;28;20226;-62
2022/01/02 08:44:22;;;;;;;5.07;4.57;;;11.70;99.90;;;;;;5064904;28;20643;-62
2022/01/02 08:46:51;;;;;;;11.50;4.77;;;11.80;99.90;;;;;;5060064;28;20555;-62
2022/01/02 08:49:22;;;;;;;5.07;4.43;;;11.70;99.90;;;;;;5081487;28;20615;-62
2022/01/02 08:51:50;;;;;;;9.43;5.17;;;11.70;99.90;;;;;;5076445;28;20647;-62
2022/01/02 08:54:19;;;;;;;5.10;4.70;;;11.80;99.90;;;;;;5078425;28;20737;-63
2022/01/02 08:56:47;;;;;;;5.20;4.73;;;11.80;99.90;;;;;;5063476;28;20718;-62
2022/01/02 08:59:17;;;;;;;5.33;4.80;;;11.90;99.90;;;;;;5083408;28;20233;-62
2022/01/02 09:01:45;;;;;;;7.33;4.57;;;11.90;99.90;;;;;;5083859;28;20690;-62
2022/01/02 09:04:14;;;;;;;6.53;4.50;;;12.00;99.90;;;;;;5060420;28;20719;-62
2022/01/02 09:06:44;;;;;;;6.20;4.60;;;12.00;99.90;;;;;;5053459;28;20933;-62
2022/01/02 09:09:13;;;;;;;6.43;4.90;;;11.90;99.90;;;;;;5077496;28;20191;-62
2022/01/02 09:11:42;;;;;;;7.13;4.63;;;11.90;99.90;;;;;;5089208;28;20666;-62
2022/01/02 09:14:10;;;;;;;9.27;5.00;;;11.90;99.90;;;;;;5075921;28;20674;-62
2022/01/02 09:16:40;;;;;;;6.80;4.57;;;12.00;99.90;;;;;;5066926;28;20223;-62
2022/01/02 09:19:08;;;;;;;5.30;4.80;;;12.10;99.90;;;;;;5085274;28;20234;-62
2022/01/02 09:21:37;;;;;;;8.67;6.00;;;12.20;99.90;;;;;;5076659;28;20651;-62
2022/01/02 09:24:08;;;;;;;49.93;26.77;;;12.20;99.90;;;;;;5081896;28;20793;-62
2022/01/02 09:26:36;;;;;;;12.00;9.47;;;12.20;99.90;;;;;;5073280;28;20203;-62
2022/01/02 09:29:05;;;;;;;10.17;6.30;;;12.20;99.90;;;;;;5064923;28;20666;-63
2022/01/02 09:31:33;;;;;;;7.43;5.53;;;12.30;99.90;;;;;;5088243;28;20184;-62
2022/01/02 09:34:07;;;;;;;7.70;5.53;;;12.40;99.90;;;;;;5079778;28;20276;-62
2022/01/02 09:36:36;;;;;;;7.20;4.93;;;12.50;99.90;;;;;;5084571;28;20207;-62
2022/01/02 09:39:05;;;;;;;6.27;5.10;;;12.50;99.90;;;;;;5062647;28;20226;-62
2022/01/02 09:41:35;;;;;;;8.63;5.67;;;12.40;99.90;;;;;;5084988;28;20725;-62
2022/01/02 09:44:05;;;;;;;5.67;5.17;;;12.40;99.90;;;;;;5081459;28;20203;-63
2022/01/02 09:46:34;;;;;;;7.63;6.83;;;12.30;99.90;;;;;;5076428;28;20688;-63
2022/01/02 09:49:04;;;;;;;8.90;5.77;;;12.30;99.90;;;;;;5081320;28;20200;-62
2022/01/02 09:51:32;;;;;;;7.80;5.77;;;12.30;99.90;;;;;;5070378;28;20223;-62
2022/01/02 09:54:01;;;;;;;7.50;5.00;;;12.30;99.90;;;;;;5075967;28;20803;-62
2022/01/02 09:56:30;;;;;;;7.63;5.00;;;12.30;99.90;;;;;;5072766;28;20291;-62
2022/01/02 09:59:01;;;;;;;8.00;5.00;;;12.30;99.90;;;;;;5060803;28;20251;-62
2022/01/02 10:01:32;;;;;;;7.43;5.00;;;12.30;99.90;;;;;;5077396;28;20249;-62
2022/01/02 10:04:01;;;;;;;7.97;5.57;;;12.30;99.90;;;;;;5075133;28;20192;-63
2022/01/02 10:06:40;;;;;;;14.77;7.70;;;12.40;99.90;;;;;;5078215;28;20651;-62
2022/01/02 10:09:16;;;;;;;9.60;5.13;;;12.40;99.90;;;;;;5078248;28;20188;-63
2022/01/02 10:11:45;;;;;;;13.33;5.10;;;12.50;99.90;;;;;;5074947;28;20203;-63
2022/01/02 10:14:15;;;;;;;6.63;4.63;;;12.70;99.90;;;;;;5057071;28;20574;-63
2022/01/02 10:16:44;;;;;;;5.33;4.80;;;12.80;99.90;;;;;;5076407;28;20203;-63
2022/01/02 10:19:21;;;;;;;10.00;4.67;;;12.80;99.90;;;;;;5070013;28;20247;-63
2022/01/02 10:21:55;;;;;;;7.80;5.07;;;12.90;99.90;;;;;;5078340;28;20203;-63
2022/01/02 10:24:27;;;;;;;12.00;5.10;;;13.00;99.90;;;;;;5079846;28;21615;-63
2022/01/02 10:27:11;;;;;;;6.00;4.70;;;13.20;99.90;;;;;;5081005;28;20577;-62
2022/01/02 10:29:46;;;;;;;6.97;5.37;;;13.30;99.90;;;;;;5081375;28;20191;-62
2022/01/02 10:32:30;;;;;;;6.50;5.30;;;13.40;99.90;;;;;;5065856;28;20195;-62
2022/01/02 10:35:14;;;;;;;10.40;7.53;;;13.40;99.90;;;;;;5069679;28;20725;-62
2022/01/02 10:37:44;;;;;;;10.27;6.37;;;13.40;99.90;;;;;;5077786;28;20928;-63
2022/01/02 10:40:29;;;;;;;10.27;7.50;;;13.50;99.90;;;;;;5086644;28;20551;-62
2022/01/02 10:42:59;;;;;;;10.53;7.70;;;13.60;99.90;;;;;;5077663;28;20219;-63
2022/01/02 10:45:38;;;;;;;11.20;6.93;;;13.70;99.90;;;;;;5068479;28;20245;-62
2022/01/02 10:48:10;;;;;;;7.97;4.90;;;14.00;99.90;;;;;;5073606;28;20223;-62
2022/01/02 10:50:40;;;;;;;12.20;6.87;;;14.00;99.90;;;;;;5074708;28;20204;-62
2022/01/02 10:53:13;;;;;;;14.23;9.47;;;13.90;99.90;;;;;;5083699;28;20605;-63
2022/01/02 10:55:45;;;;;;;9.27;4.77;;;13.80;99.90;;;;;;5083063;28;20199;-63
2022/01/02 10:58:15;;;;;;;7.90;4.50;;;13.80;99.90;;;;;;5058989;28;20201;-62
2022/01/02 11:00:45;;;;;;;6.17;3.97;;;13.80;99.90;;;;;;5066673;28;20207;-62
2022/01/02 11:03:16;;;;;;;17.30;5.33;;;14.10;99.90;;;;;;5085857;28;20286;-62
2022/01/02 11:05:48;;;;;;;5.33;4.17;;;14.40;99.90;;;;;;5082051;28;20195;-62
2022/01/02 11:08:18;;;;;;;9.03;3.90;;;14.60;99.90;;;;;;5056146;28;20224;-62
2022/01/02 11:10:47;;;;;;;15.40;4.80;;;14.70;99.90;;;;;;5077872;28;20199;-63
2022/01/02 11:13:18;;;;;;;9.77;4.03;;;14.70;99.90;;;;;;5081178;28;20203;-62
2022/01/02 11:15:49;;;;;;;10.10;4.33;;;14.60;99.90;;;;;;5081396;28;20721;-63
2022/01/02 11:18:17;;;;;;;9.77;4.40;;;14.60;99.90;;;;;;5085263;28;20322;-62
2022/01/02 11:20:46;;;;;;;9.43;4.73;;;14.40;99.90;;;;;;5087650;28;20217;-63
2022/01/02 11:23:22;;;;;;;7.20;4.50;;;14.30;99.90;;;;;;5078753;28;20250;-62
2022/01/02 11:26:04;;;;;;;8.47;4.30;;;14.10;99.90;;;;;;5083308;28;20254;-63
2022/01/02 11:28:36;;;;;;;5.57;4.10;;;14.10;99.90;;;;;;5083193;28;20188;-63
2022/01/02 11:31:07;;;;;;;5.43;4.00;;;14.20;99.90;;;;;;5067569;28;20192;-62
2022/01/02 11:33:39;;;;;;;9.00;4.20;;;14.20;99.90;;;;;;5075379;28;20211;-63
2022/01/02 11:36:25;;;;;;;10.53;5.67;;;14.20;99.90;;;;;;5056156;28;20215;-63
2022/01/02 11:39:03;;;;;;;7.23;4.37;;;14.30;99.90;;;;;;5083065;28;20286;-62
2022/01/02 11:41:36;;;;;;;10.10;6.40;;;14.50;99.90;;;;;;5076968;28;20245;-62
2022/01/02 11:44:06;;;;;;;8.07;4.30;;;14.40;99.90;;;;;;5059739;28;20199;-63
2022/01/02 11:46:50;;;;;;;5.77;4.20;;;14.30;99.90;;;;;;5078416;28;20200;-63
2022/01/02 11:49:25;;;;;;;13.23;4.80;;;14.20;99.90;;;;;;5063740;28;20205;-63
2022/01/02 11:52:10;;;;;;;9.77;4.00;;;14.10;99.90;;;;;;5079263;28;20293;-62
2022/01/02 11:54:58;;;;;;;11.27;4.27;;;14.00;99.90;;;;;;5082550;28;20245;-63
2022/01/02 11:57:46;;;;;;;7.80;4.77;;;14.00;99.90;;;;;;5081431;28;20914;-63
2022/01/02 12:00:45;;;;;;;5.57;4.90;;;14.20;99.90;;;;;;5081681;28;20218;-63
2022/01/02 12:03:52;;;;;;;13.23;7.57;;;14.40;99.90;;;;;;5007558;28;20206;-63
2022/01/02 12:06:32;;;;;;;12.23;6.80;;;14.60;99.90;;;;;;5065828;28;20219;-62
2022/01/02 12:09:02;;;;;;;10.47;4.93;;;14.90;99.90;;;;;;5071465;28;20187;-62
2022/01/02 12:11:44;;;;;;;8.63;4.00;;;15.00;99.90;;;;;;5078594;28;20192;-62
2022/01/02 12:14:22;;;;;;;8.00;3.67;;;14.90;99.90;;;;;;5076030;28;20210;-63
2022/01/02 12:16:57;;;;;;;9.03;3.10;;;14.70;99.90;;;;;;5065488;28;20203;-63
2022/01/02 12:19:27;;;;;;;9.07;3.80;;;14.50;99.90;;;;;;5082124;28;20187;-62
2022/01/02 12:22:13;;;;;;;5.50;3.20;;;14.40;99.90;;;;;;5075735;28;20208;-63
2022/01/02 12:24:42;;;;;;;7.93;3.30;;;14.50;99.90;;;;;;5084012;28;20681;-63
2022/01/02 12:27:13;;;;;;;4.70;2.77;;;14.70;99.90;;;;;;5081490;28;20195;-62
2022/01/02 12:29:42;;;;;;;6.43;3.03;;;15.10;99.90;;;;;;5074009;28;20196;-63
2022/01/02 12:32:11;;;;;;;5.37;2.87;;;15.40;99.90;;;;;;5087354;28;20752;-63
2022/01/02 12:34:42;;;;;;;8.77;3.17;;;15.60;99.90;;;;;;5064211;28;20254;-63
2022/01/02 12:37:11;;;;;;;6.77;3.60;;;15.50;99.90;;;;;;5083021;28;20227;-63
2022/01/02 12:39:43;;;;;;;5.23;2.83;;;15.50;99.90;;;;;;5056190;28;20581;-63
2022/01/02 12:42:14;;;;;;;7.80;3.20;;;15.30;99.90;;;;;;5067510;28;20197;-63
2022/01/02 12:44:44;;;;;;;8.17;3.03;;;15.20;99.90;;;;;;5077056;28;20195;-62
2022/01/02 12:47:25;;;;;;;9.77;3.00;;;15.10;99.90;;;;;;5082028;28;20253;-63
2022/01/02 12:49:57;;;;;;;8.30;3.30;;;15.10;99.90;;;;;;5075189;28;20223;-63
2022/01/02 12:52:26;;;;;;;6.13;3.43;;;15.00;99.90;;;;;;5084035;28;20207;-63
2022/01/02 12:54:54;;;;;;;5.07;3.43;;;14.90;99.90;;;;;;5062381;28;20234;-63
2022/01/02 12:57:23;;;;;;;7.90;3.30;;;14.70;99.90;;;;;;5088062;28;20306;-63
2022/01/02 12:59:56;;;;;;;4.67;2.80;;;14.60;99.90;;;;;;5061485;28;20195;-63
2022/01/02 13:02:25;;;;;;;7.57;3.57;;;14.50;99.90;;;;;;5076831;28;20195;-63
2022/01/02 13:04:57;;;;;;;6.00;2.97;;;14.70;99.90;;;;;;5055652;28;20188;-63
2022/01/02 13:07:28;;;;;;;6.20;2.97;;;15.00;99.90;;;;;;5056572;28;20200;-63
2022/01/02 13:09:58;;;;;;;6.43;3.20;;;15.10;99.90;;;;;;5076606;28;20192;-62